Baie-Trinite, Canada
Current Conditions -  °F | °C
As of 9:00 AM on Sunday 21 Dec 2014 (Local Time) from CYBC Reporting Station
Light Snow Light Snow  
Wind Chill: 11°   Ceiling: 1500
Heat Index: 19°   Visibility: 9mi
Dew Point: 14°   Wind: 6mph
Humidity: 80%   Direction: 350°N
Pressure: 30.41"   Gusts: NA
Location:  49.43°N, 67.28°W
Report Text: CYBC 211400Z AUTO 35005KT 9SM -SN OVC015 M07/M10 A3041 RMK SLP301
Loading
Personal Weather Stations






























Interactive Weather Map New forecast layout! Learn more

10-Day Weather Forecast

Advertisements
Track Severe Weather on mobile